sensor_id;sensor_type;location;lat;lon;timestamp;pressure;altitude;pressure_sealevel;temperature;humidity
71970;BME280;59838;52.152;5.436;2022-09-09T00:00:46;100878.94;;;14.67;94.76
71970;BME280;59838;52.152;5.436;2022-09-09T00:03:26;100868.47;;;14.67;94.91
71970;BME280;59838;52.152;5.436;2022-09-09T00:06:01;100870.31;;;14.67;94.64
71970;BME280;59838;52.152;5.436;2022-09-09T00:11:39;100854.22;;;14.63;94.77
71970;BME280;59838;52.152;5.436;2022-09-09T00:14:13;100853.66;;;14.61;94.73
71970;BME280;59838;52.152;5.436;2022-09-09T00:16:46;100854.44;;;14.61;94.85
71970;BME280;59838;52.152;5.436;2022-09-09T00:19:54;100854.66;;;14.60;95.13
71970;BME280;59838;52.152;5.436;2022-09-09T00:22:25;100847.78;;;14.59;95.10
71970;BME280;59838;52.152;5.436;2022-09-09T00:24:55;100852.81;;;14.60;95.27
71970;BME280;59838;52.152;5.436;2022-09-09T00:27:30;100848.81;;;14.58;95.06
71970;BME280;59838;52.152;5.436;2022-09-09T00:30:15;100847.41;;;14.55;95.20
71970;BME280;59838;52.152;5.436;2022-09-09T00:32:47;100855.66;;;14.52;95.10
71970;BME280;59838;52.152;5.436;2022-09-09T00:35:27;100855.84;;;14.51;95.34
71970;BME280;59838;52.152;5.436;2022-09-09T00:38:00;100856.66;;;14.51;95.20
71970;BME280;59838;52.152;5.436;2022-09-09T00:40:37;100861.66;;;14.53;95.51
71970;BME280;59838;52.152;5.436;2022-09-09T00:54:53;100849.91;;;14.37;95.59
71970;BME280;59838;52.152;5.436;2022-09-09T00:57:29;100852.94;;;14.34;95.70
71970;BME280;59838;52.152;5.436;2022-09-09T01:05:41;100850.75;;;14.24;95.66
71970;BME280;59838;52.152;5.436;2022-09-09T01:08:28;100850.94;;;14.22;96.06
71970;BME280;59838;52.152;5.436;2022-09-09T01:11:00;100851.75;;;14.16;96.13
71970;BME280;59838;52.152;5.436;2022-09-09T01:13:31;100861.63;;;14.14;96.26
71970;BME280;59838;52.152;5.436;2022-09-09T01:16:01;100861.22;;;14.11;96.35
71970;BME280;59838;52.152;5.436;2022-09-09T01:18:32;100860.03;;;14.06;96.43
71970;BME280;59838;52.152;5.436;2022-09-09T01:21:04;100853.19;;;14.05;96.48
71970;BME280;59838;52.152;5.436;2022-09-09T01:23:56;100852.00;;;14.01;96.80
71970;BME280;59838;52.152;5.436;2022-09-09T01:26:41;100854.81;;;14.00;96.64
71970;BME280;59838;52.152;5.436;2022-09-09T01:29:11;100835.34;;;13.96;96.76
71970;BME280;59838;52.152;5.436;2022-09-09T01:31:58;100833.94;;;13.93;96.78
71970;BME280;59838;52.152;5.436;2022-09-09T01:34:38;100834.94;;;13.92;96.94
71970;BME280;59838;52.152;5.436;2022-09-09T01:37:11;100831.31;;;13.86;96.97
71970;BME280;59838;52.152;5.436;2022-09-09T01:39:40;100835.16;;;13.84;97.09
71970;BME280;59838;52.152;5.436;2022-09-09T01:42:09;100830.94;;;13.83;97.02
71970;BME280;59838;52.152;5.436;2022-09-09T01:44:38;100829.75;;;13.79;97.17
71970;BME280;59838;52.152;5.436;2022-09-09T01:47:05;100830.16;;;13.76;97.24
71970;BME280;59838;52.152;5.436;2022-09-09T01:49:32;100836.59;;;13.73;97.36
71970;BME280;59838;52.152;5.436;2022-09-09T01:51:59;100844.03;;;13.69;97.35
71970;BME280;59838;52.152;5.436;2022-09-09T01:54:28;100838.00;;;13.69;97.53
71970;BME280;59838;52.152;5.436;2022-09-09T01:57:08;100841.81;;;13.66;97.43
71970;BME280;59838;52.152;5.436;2022-09-09T02:02:36;100832.56;;;13.57;97.62
71970;BME280;59838;52.152;5.436;2022-09-09T02:08:03;100825.38;;;13.52;97.66
71970;BME280;59838;52.152;5.436;2022-09-09T02:10:39;100831.59;;;13.51;97.71
71970;BME280;59838;52.152;5.436;2022-09-09T02:13:14;100827.75;;;13.47;97.77
71970;BME280;59838;52.152;5.436;2022-09-09T02:15:52;100821.34;;;13.43;97.96
71970;BME280;59838;52.152;5.436;2022-09-09T02:18:26;100818.94;;;13.42;98.18
71970;BME280;59838;52.152;5.436;2022-09-09T02:20:56;100820.97;;;13.40;98.07
71970;BME280;59838;52.152;5.436;2022-09-09T02:23:23;100828.16;;;13.38;98.23
71970;BME280;59838;52.152;5.436;2022-09-09T02:25:51;100824.38;;;13.33;98.14
71970;BME280;59838;52.152;5.436;2022-09-09T02:28:20;100823.13;;;13.29;98.03
71970;BME280;59838;52.152;5.436;2022-09-09T02:30:49;100811.28;;;13.27;98.20
71970;BME280;59838;52.152;5.436;2022-09-09T02:33:28;100820.50;;;13.23;98.10
71970;BME280;59838;52.152;5.436;2022-09-09T02:35:57;100817.50;;;13.19;98.02
71970;BME280;59838;52.152;5.436;2022-09-09T02:38:33;100816.50;;;13.20;98.07
71970;BME280;59838;52.152;5.436;2022-09-09T02:41:01;100816.72;;;13.19;98.14
71970;BME280;59838;52.152;5.436;2022-09-09T02:43:32;100810.66;;;13.18;97.87
71970;BME280;59838;52.152;5.436;2022-09-09T02:48:58;100811.69;;;13.17;98.06
71970;BME280;59838;52.152;5.436;2022-09-09T02:51:51;100814.50;;;13.15;97.93
71970;BME280;59838;52.152;5.436;2022-09-09T02:54:32;100812.09;;;13.14;97.79
71970;BME280;59838;52.152;5.436;2022-09-09T02:57:21;100811.47;;;13.12;98.11
71970;BME280;59838;52.152;5.436;2022-09-09T02:59:49;100810.06;;;13.09;97.97
71970;BME280;59838;52.152;5.436;2022-09-09T03:02:16;100808.47;;;13.08;98.14
71970;BME280;59838;52.152;5.436;2022-09-09T03:04:42;100807.88;;;13.06;98.19
71970;BME280;59838;52.152;5.436;2022-09-09T03:07:11;100804.47;;;13.06;98.23
71970;BME280;59838;52.152;5.436;2022-09-09T03:09:38;100807.28;;;13.04;98.35
71970;BME280;59838;52.152;5.436;2022-09-09T03:12:04;100805.84;;;13.02;98.19
71970;BME280;59838;52.152;5.436;2022-09-09T03:14:31;100803.44;;;13.00;98.37
71970;BME280;59838;52.152;5.436;2022-09-09T03:16:57;100807.88;;;12.99;98.32
71970;BME280;59838;52.152;5.436;2022-09-09T03:19:26;100799.84;;;12.94;98.01
71970;BME280;59838;52.152;5.436;2022-09-09T03:21:54;100811.47;;;12.92;98.22
71970;BME280;59838;52.152;5.436;2022-09-09T03:24:20;100813.28;;;12.91;98.04
71970;BME280;59838;52.152;5.436;2022-09-09T03:26:48;100815.06;;;12.91;98.34
71970;BME280;59838;52.152;5.436;2022-09-09T03:29:16;100810.66;;;12.91;98.28
71970;BME280;59838;52.152;5.436;2022-09-09T03:31:44;100806.84;;;12.87;98.12
71970;BME280;59838;52.152;5.436;2022-09-09T03:34:11;100803.44;;;12.87;98.57
71970;BME280;59838;52.152;5.436;2022-09-09T03:36:37;100804.63;;;12.84;98.40
71970;BME280;59838;52.152;5.436;2022-09-09T03:39:04;100804.41;;;12.86;98.44
71970;BME280;59838;52.152;5.436;2022-09-09T03:41:31;100809.84;;;12.84;98.55
71970;BME280;59838;52.152;5.436;2022-09-09T03:43:57;100803.63;;;12.85;98.53
71970;BME280;59838;52.152;5.436;2022-09-09T03:46:25;100815.66;;;12.86;98.58
71970;BME280;59838;52.152;5.436;2022-09-09T03:48:52;100804.63;;;12.84;98.57
71970;BME280;59838;52.152;5.436;2022-09-09T03:51:18;100811.44;;;12.85;98.71
71970;BME280;59838;52.152;5.436;2022-09-09T03:53:45;100801.03;;;12.85;98.65
71970;BME280;59838;52.152;5.436;2022-09-09T03:56:11;100795.00;;;12.85;98.66
71970;BME280;59838;52.152;5.436;2022-09-09T03:58:38;100800.03;;;12.86;98.78
71970;BME280;59838;52.152;5.436;2022-09-09T04:01:07;100794.81;;;12.86;98.76
71970;BME280;59838;52.152;5.436;2022-09-09T04:03:35;100807.66;;;12.88;98.93
71970;BME280;59838;52.152;5.436;2022-09-09T04:06:02;100799.00;;;12.87;98.86
71970;BME280;59838;52.152;5.436;2022-09-09T04:08:30;100797.22;;;12.88;98.89
71970;BME280;59838;52.152;5.436;2022-09-09T04:11:00;100798.41;;;12.85;98.87
71970;BME280;59838;52.152;5.436;2022-09-09T04:13:35;100788.97;;;12.84;98.70
71970;BME280;59838;52.152;5.436;2022-09-09T04:16:04;100798.59;;;12.84;98.66
71970;BME280;59838;52.152;5.436;2022-09-09T04:18:31;100798.81;;;12.82;98.81
71970;BME280;59838;52.152;5.436;2022-09-09T04:20:58;100805.00;;;12.81;98.75
71970;BME280;59838;52.152;5.436;2022-09-09T04:23:26;100796.00;;;12.77;98.77
71970;BME280;59838;52.152;5.436;2022-09-09T04:25:55;100790.97;;;12.75;98.76
71970;BME280;59838;52.152;5.436;2022-09-09T04:28:24;100783.34;;;12.74;98.81
71970;BME280;59838;52.152;5.436;2022-09-09T04:30:51;100789.56;;;12.73;98.82
71970;BME280;59838;52.152;5.436;2022-09-09T04:33:18;100789.56;;;12.73;98.87
71970;BME280;59838;52.152;5.436;2022-09-09T04:35:49;100781.72;;;12.73;98.87
71970;BME280;59838;52.152;5.436;2022-09-09T04:38:16;100789.16;;;12.76;99.13
71970;BME280;59838;52.152;5.436;2022-09-09T04:40:45;100788.78;;;12.79;99.09
71970;BME280;59838;52.152;5.436;2022-09-09T04:43:12;100797.00;;;12.83;98.97
71970;BME280;59838;52.152;5.436;2022-09-09T04:45:41;100785.78;;;12.89;99.44
71970;BME280;59838;52.152;5.436;2022-09-09T04:48:08;100779.38;;;12.91;99.21
71970;BME280;59838;52.152;5.436;2022-09-09T04:50:35;100772.53;;;12.97;99.44
71970;BME280;59838;52.152;5.436;2022-09-09T04:53:03;100773.75;;;13.01;99.64
71970;BME280;59838;52.152;5.436;2022-09-09T04:55:31;100773.38;;;13.04;99.44
71970;BME280;59838;52.152;5.436;2022-09-09T04:58:03;100768.16;;;13.04;99.53
71970;BME280;59838;52.152;5.436;2022-09-09T05:00:30;100770.97;;;13.03;99.54
71970;BME280;59838;52.152;5.436;2022-09-09T05:02:56;100775.34;;;13.02;99.22
71970;BME280;59838;52.152;5.436;2022-09-09T05:05:22;100784.19;;;13.01;99.33
71970;BME280;59838;52.152;5.436;2022-09-09T05:07:49;100782.38;;;13.02;99.56
71970;BME280;59838;52.152;5.436;2022-09-09T05:10:15;100781.38;;;13.03;99.33
71970;BME280;59838;52.152;5.436;2022-09-09T05:12:52;100782.97;;;13.04;99.49
71970;BME280;59838;52.152;5.436;2022-09-09T05:15:19;100776.97;;;13.03;99.41
71970;BME280;59838;52.152;5.436;2022-09-09T05:17:47;100780.38;;;13.04;99.32
71970;BME280;59838;52.152;5.436;2022-09-09T05:20:13;100778.97;;;13.08;99.37
71970;BME280;59838;52.152;5.436;2022-09-09T05:22:42;100769.13;;;13.10;99.52
71970;BME280;59838;52.152;5.436;2022-09-09T05:25:09;100771.34;;;13.13;99.43
71970;BME280;59838;52.152;5.436;2022-09-09T05:27:35;100770.94;;;13.16;99.56
71970;BME280;59838;52.152;5.436;2022-09-09T05:30:02;100764.34;;;13.20;99.54
71970;BME280;59838;52.152;5.436;2022-09-09T05:32:30;100762.72;;;13.26;99.50
71970;BME280;59838;52.152;5.436;2022-09-09T05:35:00;100754.50;;;13.29;99.40
71970;BME280;59838;52.152;5.436;2022-09-09T05:37:27;100754.50;;;13.35;99.46
71970;BME280;59838;52.152;5.436;2022-09-09T05:39:54;100761.69;;;13.74;99.97
71970;BME280;59838;52.152;5.436;2022-09-09T05:42:21;100759.38;;;14.42;99.18
71970;BME280;59838;52.152;5.436;2022-09-09T05:44:47;100758.53;;;15.38;96.50
71970;BME280;59838;52.152;5.436;2022-09-09T05:47:13;100757.94;;;15.54;92.49
71970;BME280;59838;52.152;5.436;2022-09-09T05:49:41;100758.53;;;15.12;90.85
71970;BME280;59838;52.152;5.436;2022-09-09T05:52:07;100761.63;;;14.77;91.54
71970;BME280;59838;52.152;5.436;2022-09-09T05:54:35;100761.06;;;14.69;92.45
71970;BME280;59838;52.152;5.436;2022-09-09T05:57:03;100759.84;;;15.03;92.19
71970;BME280;59838;52.152;5.436;2022-09-09T05:59:30;100752.34;;;15.69;91.04
71970;BME280;59838;52.152;5.436;2022-09-09T06:01:57;100751.13;;;16.08;88.05
71970;BME280;59838;52.152;5.436;2022-09-09T06:04:23;100750.91;;;16.10;86.91
71970;BME280;59838;52.152;5.436;2022-09-09T06:06:50;100767.72;;;16.02;87.26
71970;BME280;59838;52.152;5.436;2022-09-09T06:09:16;100777.59;;;16.19;87.16
71970;BME280;59838;52.152;5.436;2022-09-09T06:11:43;100766.31;;;16.49;86.13
71970;BME280;59838;52.152;5.436;2022-09-09T06:14:10;100770.25;;;16.70;84.68
71970;BME280;59838;52.152;5.436;2022-09-09T06:16:37;100770.31;;;17.76;81.83
71970;BME280;59838;52.152;5.436;2022-09-09T06:19:04;100767.00;;;18.67;77.25
71970;BME280;59838;52.152;5.436;2022-09-09T06:21:32;100765.50;;;18.71;76.19
71970;BME280;59838;52.152;5.436;2022-09-09T06:24:00;100765.31;;;18.90;75.36
71970;BME280;59838;52.152;5.436;2022-09-09T06:26:29;100755.28;;;19.43;74.52
71970;BME280;59838;52.152;5.436;2022-09-09T06:28:57;100755.75;;;20.28;71.41
71970;BME280;59838;52.152;5.436;2022-09-09T06:31:26;100751.09;;;21.00;68.04
71970;BME280;59838;52.152;5.436;2022-09-09T06:33:58;100753.88;;;21.21;66.37
71970;BME280;59838;52.152;5.436;2022-09-09T06:36:27;100751.84;;;20.63;68.12
71970;BME280;59838;52.152;5.436;2022-09-09T06:38:54;100750.63;;;21.56;66.25
71970;BME280;59838;52.152;5.436;2022-09-09T06:41:22;100742.13;;;22.69;62.52
71970;BME280;59838;52.152;5.436;2022-09-09T06:43:49;100743.06;;;23.45;60.20
71970;BME280;59838;52.152;5.436;2022-09-09T06:46:21;100751.09;;;23.95;59.45
71970;BME280;59838;52.152;5.436;2022-09-09T06:48:48;100749.56;;;23.83;58.63
71970;BME280;59838;52.152;5.436;2022-09-09T06:51:17;100754.81;;;22.97;59.96
71970;BME280;59838;52.152;5.436;2022-09-09T06:53:45;100751.78;;;21.76;63.92
71970;BME280;59838;52.152;5.436;2022-09-09T06:58:43;100752.94;;;20.13;69.52
71970;BME280;59838;52.152;5.436;2022-09-09T07:01:15;100761.53;;;19.59;70.73
71970;BME280;59838;52.152;5.436;2022-09-09T07:03:45;100759.41;;;18.99;74.08
71970;BME280;59838;52.152;5.436;2022-09-09T07:06:19;100755.47;;;18.68;75.90
71970;BME280;59838;52.152;5.436;2022-09-09T07:08:51;100758.56;;;18.19;76.81
71970;BME280;59838;52.152;5.436;2022-09-09T07:11:25;100764.47;;;17.86;78.82
71970;BME280;59838;52.152;5.436;2022-09-09T07:13:56;100759.66;;;17.83;79.09
71970;BME280;59838;52.152;5.436;2022-09-09T07:16:23;100759.66;;;18.06;80.04
71970;BME280;59838;52.152;5.436;2022-09-09T07:18:54;100757.03;;;18.35;79.61
71970;BME280;59838;52.152;5.436;2022-09-09T07:21:27;100758.59;;;18.07;79.05
71970;BME280;59838;52.152;5.436;2022-09-09T07:23:54;100761.03;;;17.97;79.92
71970;BME280;59838;52.152;5.436;2022-09-09T07:26:24;100755.56;;;17.87;79.47
71970;BME280;59838;52.152;5.436;2022-09-09T07:28:52;100753.19;;;17.62;80.67
71970;BME280;59838;52.152;5.436;2022-09-09T07:31:26;100758.47;;;17.50;82.39
71970;BME280;59838;52.152;5.436;2022-09-09T07:33:53;100759.53;;;17.37;82.89
71970;BME280;59838;52.152;5.436;2022-09-09T07:38:51;100774.47;;;17.13;83.21
71970;BME280;59838;52.152;5.436;2022-09-09T07:41:20;100765.53;;;17.02;83.71
71970;BME280;59838;52.152;5.436;2022-09-09T07:43:48;100766.72;;;17.06;85.26
71970;BME280;59838;52.152;5.436;2022-09-09T07:46:18;100768.75;;;17.16;83.64
71970;BME280;59838;52.152;5.436;2022-09-09T07:48:47;100767.03;;;17.22;84.69
71970;BME280;59838;52.152;5.436;2022-09-09T07:51:21;100755.88;;;17.38;83.79
71970;BME280;59838;52.152;5.436;2022-09-09T07:53:52;100756.72;;;17.79;82.50
71970;BME280;59838;52.152;5.436;2022-09-09T07:56:21;100756.03;;;17.84;81.01
71970;BME280;59838;52.152;5.436;2022-09-09T07:58:51;100747.81;;;17.92;81.54
71970;BME280;59838;52.152;5.436;2022-09-09T08:01:26;100755.66;;;18.04;81.36
71970;BME280;59838;52.152;5.436;2022-09-09T08:04:04;100752.41;;;18.42;79.39
71970;BME280;59838;52.152;5.436;2022-09-09T08:06:34;100754.47;;;18.40;78.25
71970;BME280;59838;52.152;5.436;2022-09-09T08:09:01;100753.97;;;18.26;79.16
71970;BME280;59838;52.152;5.436;2022-09-09T08:11:29;100762.03;;;18.08;80.39
71970;BME280;59838;52.152;5.436;2022-09-09T08:14:00;100764.00;;;18.01;79.95
71970;BME280;59838;52.152;5.436;2022-09-09T08:16:33;100761.75;;;17.81;79.84
71970;BME280;59838;52.152;5.436;2022-09-09T08:19:03;100765.28;;;17.75;81.04
71970;BME280;59838;52.152;5.436;2022-09-09T08:21:31;100773.06;;;17.69;81.11
71970;BME280;59838;52.152;5.436;2022-09-09T08:23:59;100768.75;;;17.51;79.53
71970;BME280;59838;52.152;5.436;2022-09-09T08:26:31;100775.59;;;17.41;80.84
71970;BME280;59838;52.152;5.436;2022-09-09T08:28:59;100770.94;;;17.31;81.07
71970;BME280;59838;52.152;5.436;2022-09-09T08:31:31;100773.91;;;17.23;80.53
71970;BME280;59838;52.152;5.436;2022-09-09T08:33:58;100783.00;;;17.20;80.98
71970;BME280;59838;52.152;5.436;2022-09-09T08:36:27;100784.63;;;17.21;81.49
71970;BME280;59838;52.152;5.436;2022-09-09T08:38:56;100783.00;;;17.20;82.35
71970;BME280;59838;52.152;5.436;2022-09-09T08:47:21;100793.28;;;16.98;81.29
71970;BME280;59838;52.152;5.436;2022-09-09T08:50:08;100787.94;;;17.05;80.62
71970;BME280;59838;52.152;5.436;2022-09-09T08:53:02;100795.34;;;17.08;82.01
71970;BME280;59838;52.152;5.436;2022-09-09T08:55:56;100795.69;;;17.11;81.64
71970;BME280;59838;52.152;5.436;2022-09-09T08:58:30;100789.19;;;17.14;80.85
71970;BME280;59838;52.152;5.436;2022-09-09T09:01:20;100807.47;;;17.21;81.94
71970;BME280;59838;52.152;5.436;2022-09-09T09:06:47;100795.56;;;17.30;82.00
71970;BME280;59838;52.152;5.436;2022-09-09T09:09:28;100803.22;;;17.31;81.60
71970;BME280;59838;52.152;5.436;2022-09-09T09:11:58;100804.72;;;17.27;80.71
71970;BME280;59838;52.152;5.436;2022-09-09T09:14:29;100800.59;;;17.31;81.46
71970;BME280;59838;52.152;5.436;2022-09-09T09:19:29;100804.28;;;17.30;80.57
71970;BME280;59838;52.152;5.436;2022-09-09T09:27:32;100806.19;;;17.11;80.03
71970;BME280;59838;52.152;5.436;2022-09-09T09:30:04;100807.34;;;17.15;82.05
71970;BME280;59838;52.152;5.436;2022-09-09T09:32:59;100808.72;;;17.18;81.55
71970;BME280;59838;52.152;5.436;2022-09-09T09:35:27;100811.56;;;17.16;81.14
71970;BME280;59838;52.152;5.436;2022-09-09T09:37:54;100804.28;;;17.18;80.55
71970;BME280;59838;52.152;5.436;2022-09-09T09:40:57;100809.63;;;17.24;81.29
71970;BME280;59838;52.152;5.436;2022-09-09T09:43:27;100797.06;;;17.38;81.18
71970;BME280;59838;52.152;5.436;2022-09-09T09:45:55;100805.28;;;17.41;79.38
71970;BME280;59838;52.152;5.436;2022-09-09T09:48:41;100812.94;;;17.43;79.78
71970;BME280;59838;52.152;5.436;2022-09-09T09:51:11;100804.84;;;17.44;79.91
71970;BME280;59838;52.152;5.436;2022-09-09T09:53:42;100807.91;;;17.41;79.71
71970;BME280;59838;52.152;5.436;2022-09-09T09:56:11;100804.84;;;17.44;80.36
71970;BME280;59838;52.152;5.436;2022-09-09T09:58:48;100805.75;;;17.50;79.84
71970;BME280;59838;52.152;5.436;2022-09-09T10:01:24;100806.91;;;17.66;80.59
71970;BME280;59838;52.152;5.436;2022-09-09T10:03:58;100801.75;;;17.71;80.78
71970;BME280;59838;52.152;5.436;2022-09-09T10:06:33;100799.13;;;17.71;80.35
71970;BME280;59838;52.152;5.436;2022-09-09T10:09:01;100803.91;;;17.62;79.72
71970;BME280;59838;52.152;5.436;2022-09-09T10:11:45;100797.19;;;17.54;79.08
71970;BME280;59838;52.152;5.436;2022-09-09T10:14:20;100803.81;;;17.57;79.02
71970;BME280;59838;52.152;5.436;2022-09-09T10:19:31;100798.41;;;17.64;79.62
71970;BME280;59838;52.152;5.436;2022-09-09T10:25:22;100796.72;;;17.46;79.97
71970;BME280;59838;52.152;5.436;2022-09-09T10:30:55;100804.50;;;17.41;79.82
71970;BME280;59838;52.152;5.436;2022-09-09T10:34:03;100804.59;;;17.46;79.61
71970;BME280;59838;52.152;5.436;2022-09-09T10:36:32;100810.69;;;17.46;80.46
71970;BME280;59838;52.152;5.436;2022-09-09T10:39:22;100814.09;;;17.47;80.63
71970;BME280;59838;52.152;5.436;2022-09-09T10:42:15;100808.94;;;17.52;81.72
71970;BME280;59838;52.152;5.436;2022-09-09T10:45:07;100800.28;;;17.51;82.11
71970;BME280;59838;52.152;5.436;2022-09-09T10:50:52;100816.84;;;17.28;82.77
71970;BME280;59838;52.152;5.436;2022-09-09T10:56:10;100804.84;;;17.44;84.91
71970;BME280;59838;52.152;5.436;2022-09-09T10:59:00;100806.53;;;17.62;85.12
71970;BME280;59838;52.152;5.436;2022-09-09T11:01:52;100817.84;;;17.75;84.75
71970;BME280;59838;52.152;5.436;2022-09-09T11:04:40;100806.41;;;17.93;83.76
71970;BME280;59838;52.152;5.436;2022-09-09T11:07:12;100801.38;;;17.91;83.16
71970;BME280;59838;52.152;5.436;2022-09-09T11:09:49;100801.97;;;18.22;83.25
71970;BME280;59838;52.152;5.436;2022-09-09T11:12:19;100804.09;;;18.66;81.80
71970;BME280;59838;52.152;5.436;2022-09-09T11:14:54;100791.63;;;18.90;82.19
71970;BME280;59838;52.152;5.436;2022-09-09T11:17:33;100799.69;;;19.00;82.86
71970;BME280;59838;52.152;5.436;2022-09-09T11:20:05;100787.59;;;19.38;80.87
71970;BME280;59838;52.152;5.436;2022-09-09T11:25:14;100787.66;;;19.21;77.59
71970;BME280;59838;52.152;5.436;2022-09-09T11:30:43;100782.25;;;18.82;79.11
71970;BME280;59838;52.152;5.436;2022-09-09T11:39:14;100782.97;;;18.60;79.99
71970;BME280;59838;52.152;5.436;2022-09-09T11:41:44;100785.50;;;18.72;79.95
71970;BME280;59838;52.152;5.436;2022-09-09T11:44:16;100784.56;;;18.78;78.63
71970;BME280;59838;52.152;5.436;2022-09-09T11:46:49;100781.47;;;18.64;77.69
71970;BME280;59838;52.152;5.436;2022-09-09T11:49:29;100779.84;;;18.63;77.00
71970;BME280;59838;52.152;5.436;2022-09-09T11:51:57;100779.84;;;18.63;76.23
71970;BME280;59838;52.152;5.436;2022-09-09T11:54:32;100783.47;;;18.74;78.71
71970;BME280;59838;52.152;5.436;2022-09-09T11:56:59;100778.28;;;18.79;78.43
71970;BME280;59838;52.152;5.436;2022-09-09T11:59:30;100785.91;;;18.64;77.70
71970;BME280;59838;52.152;5.436;2022-09-09T12:02:02;100785.34;;;18.45;79.11
71970;BME280;59838;52.152;5.436;2022-09-09T12:04:40;100780.19;;;18.38;80.29
71970;BME280;59838;52.152;5.436;2022-09-09T12:09:48;100782.47;;;18.18;82.41
71970;BME280;59838;52.152;5.436;2022-09-09T12:17:49;100792.44;;;18.04;82.30
71970;BME280;59838;52.152;5.436;2022-09-09T12:34:28;100788.72;;;17.52;85.24
71970;BME280;59838;52.152;5.436;2022-09-09T12:37:00;100780.47;;;17.84;86.04
71970;BME280;59838;52.152;5.436;2022-09-09T12:39:37;100785.84;;;18.01;86.48
71970;BME280;59838;52.152;5.436;2022-09-09T12:42:14;100791.06;;;18.13;85.46
71970;BME280;59838;52.152;5.436;2022-09-09T12:44:50;100784.25;;;18.29;86.16
71970;BME280;59838;52.152;5.436;2022-09-09T12:47:18;100775.75;;;18.39;84.28
71970;BME280;59838;52.152;5.436;2022-09-09T12:49:47;100779.94;;;18.52;85.27
71970;BME280;59838;52.152;5.436;2022-09-09T12:52:28;100777.78;;;18.66;84.24
71970;BME280;59838;52.152;5.436;2022-09-09T12:55:00;100772.03;;;18.69;83.10
71970;BME280;59838;52.152;5.436;2022-09-09T12:57:33;100764.38;;;18.50;83.58
71970;BME280;59838;52.152;5.436;2022-09-09T13:00:15;100769.50;;;18.28;81.67
71970;BME280;59838;52.152;5.436;2022-09-09T13:02:57;100766.88;;;18.28;83.17
71970;BME280;59838;52.152;5.436;2022-09-09T13:05:27;100766.03;;;18.39;83.79
71970;BME280;59838;52.152;5.436;2022-09-09T13:08:20;100768.13;;;18.54;83.00
71970;BME280;59838;52.152;5.436;2022-09-09T13:10:55;100773.13;;;18.85;82.73
71970;BME280;59838;52.152;5.436;2022-09-09T13:13:36;100773.38;;;19.00;81.73
71970;BME280;59838;52.152;5.436;2022-09-09T13:16:06;100771.09;;;19.26;81.27
71970;BME280;59838;52.152;5.436;2022-09-09T13:18:37;100769.22;;;19.43;78.67
71970;BME280;59838;52.152;5.436;2022-09-09T13:21:06;100767.66;;;19.64;80.68
71970;BME280;59838;52.152;5.436;2022-09-09T13:23:34;100762.72;;;19.90;77.62
71970;BME280;59838;52.152;5.436;2022-09-09T13:26:27;100768.06;;;19.95;76.02
71970;BME280;59838;52.152;5.436;2022-09-09T13:28:53;100762.88;;;19.61;76.23
71970;BME280;59838;52.152;5.436;2022-09-09T13:31:33;100764.22;;;19.42;76.65
71970;BME280;59838;52.152;5.436;2022-09-09T13:37:00;100754.72;;;19.41;76.36
71970;BME280;59838;52.152;5.436;2022-09-09T13:39:28;100759.78;;;19.25;77.91
71970;BME280;59838;52.152;5.436;2022-09-09T13:41:55;100766.66;;;19.26;79.00
71970;BME280;59838;52.152;5.436;2022-09-09T13:44:24;100764.50;;;19.23;78.51
71970;BME280;59838;52.152;5.436;2022-09-09T13:47:04;100756.84;;;19.22;79.07
71970;BME280;59838;52.152;5.436;2022-09-09T13:49:35;100766.66;;;19.09;79.13
71970;BME280;59838;52.152;5.436;2022-09-09T13:52:05;100754.69;;;19.18;79.93
71970;BME280;59838;52.152;5.436;2022-09-09T13:54:33;100758.75;;;19.09;78.33
71970;BME280;59838;52.152;5.436;2022-09-09T13:56:59;100758.69;;;19.04;78.85
71970;BME280;59838;52.152;5.436;2022-09-09T13:59:27;100764.50;;;19.06;78.99
71970;BME280;59838;52.152;5.436;2022-09-09T14:02:15;100764.00;;;19.09;78.68
71970;BME280;59838;52.152;5.436;2022-09-09T14:04:43;100762.34;;;19.03;79.06
71970;BME280;59838;52.152;5.436;2022-09-09T14:07:14;100767.06;;;19.01;77.68
71970;BME280;59838;52.152;5.436;2022-09-09T14:09:41;100759.31;;;18.94;78.88
71970;BME280;59838;52.152;5.436;2022-09-09T14:12:10;100764.13;;;18.97;79.48
71970;BME280;59838;52.152;5.436;2022-09-09T14:14:37;100764.59;;;18.94;79.21
71970;BME280;59838;52.152;5.436;2022-09-09T14:17:04;100764.81;;;18.93;79.46
71970;BME280;59838;52.152;5.436;2022-09-09T14:19:33;100756.94;;;18.93;79.51
71970;BME280;59838;52.152;5.436;2022-09-09T14:21:59;100756.38;;;18.91;78.92
71970;BME280;59838;52.152;5.436;2022-09-09T14:24:27;100757.41;;;18.90;78.95
71970;BME280;59838;52.152;5.436;2022-09-09T14:26:54;100754.00;;;18.89;79.14
71970;BME280;59838;52.152;5.436;2022-09-09T14:29:21;100757.09;;;18.86;79.65
71970;BME280;59838;52.152;5.436;2022-09-09T14:31:47;100752.50;;;18.81;80.27
71970;BME280;59838;52.152;5.436;2022-09-09T14:34:13;100755.00;;;18.71;79.55
71970;BME280;59838;52.152;5.436;2022-09-09T14:36:40;100751.81;;;18.69;81.67
71970;BME280;59838;52.152;5.436;2022-09-09T14:39:07;100753.22;;;18.60;81.50
71970;BME280;59838;52.152;5.436;2022-09-09T14:41:34;100755.78;;;18.55;81.90
71970;BME280;59838;52.152;5.436;2022-09-09T14:44:00;100748.81;;;18.49;83.11
71970;BME280;59838;52.152;5.436;2022-09-09T14:46:27;100750.31;;;18.44;83.68
71970;BME280;59838;52.152;5.436;2022-09-09T14:48:53;100751.75;;;18.35;83.41
71970;BME280;59838;52.152;5.436;2022-09-09T14:51:22;100751.66;;;18.30;83.54
71970;BME280;59838;52.152;5.436;2022-09-09T14:53:55;100749.84;;;18.31;85.49
71970;BME280;59838;52.152;5.436;2022-09-09T14:56:25;100741.03;;;18.25;85.35